sensor_id;sensor_type;location;lat;lon;timestamp;pressure;altitude;pressure_sealevel;temperature;humidity
56894;BME280;43392;50.078;13.704;2023-01-28T00:00:04;97498.81;;;-0.54;90.53
56894;BME280;43392;50.078;13.704;2023-01-28T00:02:33;97489.50;;;-0.50;90.81
56894;BME280;43392;50.078;13.704;2023-01-28T00:05:00;97496.63;;;-0.51;90.80
56894;BME280;43392;50.078;13.704;2023-01-28T00:07:27;97499.06;;;-0.49;90.33
56894;BME280;43392;50.078;13.704;2023-01-28T00:09:54;97487.91;;;-0.51;90.87
56894;BME280;43392;50.078;13.704;2023-01-28T00:12:20;97490.53;;;-0.51;90.68
56894;BME280;43392;50.078;13.704;2023-01-28T00:14:47;97490.31;;;-0.50;90.78
56894;BME280;43392;50.078;13.704;2023-01-28T00:17:14;97488.72;;;-0.51;90.64
56894;BME280;43392;50.078;13.704;2023-01-28T00:19:42;97489.72;;;-0.52;90.51
56894;BME280;43392;50.078;13.704;2023-01-28T00:22:09;97484.19;;;-0.57;90.40
56894;BME280;43392;50.078;13.704;2023-01-28T00:24:35;97491.91;;;-0.55;90.62
56894;BME280;43392;50.078;13.704;2023-01-28T00:27:02;97484.00;;;-0.55;90.70
56894;BME280;43392;50.078;13.704;2023-01-28T00:29:29;97485.66;;;-0.54;91.07
56894;BME280;43392;50.078;13.704;2023-01-28T00:31:55;97478.72;;;-0.55;90.85
56894;BME280;43392;50.078;13.704;2023-01-28T00:34:22;97494.75;;;-0.57;90.95
56894;BME280;43392;50.078;13.704;2023-01-28T00:36:50;97488.25;;;-0.61;90.50
56894;BME280;43392;50.078;13.704;2023-01-28T00:39:22;97485.38;;;-0.66;91.09
56894;BME280;43392;50.078;13.704;2023-01-28T00:41:48;97480.91;;;-0.65;91.31
56894;BME280;43392;50.078;13.704;2023-01-28T00:44:15;97492.66;;;-0.68;91.51
56894;BME280;43392;50.078;13.704;2023-01-28T00:46:42;97482.53;;;-0.64;91.21
56894;BME280;43392;50.078;13.704;2023-01-28T00:49:08;97498.38;;;-0.58;91.56
56894;BME280;43392;50.078;13.704;2023-01-28T00:51:35;97492.47;;;-0.60;91.44
56894;BME280;43392;50.078;13.704;2023-01-28T00:54:03;97487.63;;;-0.63;91.17
56894;BME280;43392;50.078;13.704;2023-01-28T00:56:30;97496.13;;;-0.61;91.30
56894;BME280;43392;50.078;13.704;2023-01-28T00:58:57;97490.06;;;-0.61;91.19
56894;BME280;43392;50.078;13.704;2023-01-28T01:01:25;97487.63;;;-0.63;91.37
56894;BME280;43392;50.078;13.704;2023-01-28T01:03:53;97488.81;;;-0.65;91.27
56894;BME280;43392;50.078;13.704;2023-01-28T01:06:27;97494.09;;;-0.65;91.17
56894;BME280;43392;50.078;13.704;2023-01-28T01:08:54;97492.44;;;-0.67;91.38
56894;BME280;43392;50.078;13.704;2023-01-28T01:11:22;97486.34;;;-0.67;91.46
56894;BME280;43392;50.078;13.704;2023-01-28T01:13:50;97490.81;;;-0.68;91.68
56894;BME280;43392;50.078;13.704;2023-01-28T01:16:20;97482.34;;;-0.63;91.61
56894;BME280;43392;50.078;13.704;2023-01-28T01:18:47;97485.16;;;-0.64;91.58
56894;BME280;43392;50.078;13.704;2023-01-28T01:21:15;97486.97;;;-0.65;91.48
56894;BME280;43392;50.078;13.704;2023-01-28T01:23:43;97490.63;;;-0.66;91.36
56894;BME280;43392;50.078;13.704;2023-01-28T01:26:10;97495.44;;;-0.70;91.37
56894;BME280;43392;50.078;13.704;2023-01-28T01:28:38;97495.28;;;-0.68;91.65
56894;BME280;43392;50.078;13.704;2023-01-28T01:31:07;97496.50;;;-0.64;91.96
56894;BME280;43392;50.078;13.704;2023-01-28T01:33:34;97495.31;;;-0.61;91.30
56894;BME280;43392;50.078;13.704;2023-01-28T01:36:00;97491.88;;;-0.62;91.32
56894;BME280;43392;50.078;13.704;2023-01-28T01:38:28;97502.03;;;-0.59;91.79
56894;BME280;43392;50.078;13.704;2023-01-28T01:40:55;97501.41;;;-0.61;91.62
56894;BME280;43392;50.078;13.704;2023-01-28T01:43:23;97506.28;;;-0.58;91.53
56894;BME280;43392;50.078;13.704;2023-01-28T01:45:54;97510.34;;;-0.55;91.64
56894;BME280;43392;50.078;13.704;2023-01-28T01:48:24;97507.47;;;-0.60;91.48
56894;BME280;43392;50.078;13.704;2023-01-28T01:50:57;97505.25;;;-0.63;91.55
56894;BME280;43392;50.078;13.704;2023-01-28T01:53:27;97510.31;;;-0.62;91.48
56894;BME280;43392;50.078;13.704;2023-01-28T01:55:57;97516.19;;;-0.60;91.47
56894;BME280;43392;50.078;13.704;2023-01-28T01:58:28;97511.53;;;-0.58;91.15
56894;BME280;43392;50.078;13.704;2023-01-28T02:00:57;97517.25;;;-0.54;91.15
56894;BME280;43392;50.078;13.704;2023-01-28T02:03:27;97515.00;;;-0.57;90.89
56894;BME280;43392;50.078;13.704;2023-01-28T02:05:54;97523.09;;;-0.59;91.04
56894;BME280;43392;50.078;13.704;2023-01-28T02:08:21;97525.16;;;-0.54;91.45
56894;BME280;43392;50.078;13.704;2023-01-28T02:10:52;97525.97;;;-0.54;91.04
56894;BME280;43392;50.078;13.704;2023-01-28T02:13:23;97518.06;;;-0.54;91.27
56894;BME280;43392;50.078;13.704;2023-01-28T02:15:51;97532.28;;;-0.48;91.03
56894;BME280;43392;50.078;13.704;2023-01-28T02:18:19;97526.22;;;-0.49;91.18
56894;BME280;43392;50.078;13.704;2023-01-28T02:23:49;97528.69;;;-0.41;91.01
56894;BME280;43392;50.078;13.704;2023-01-28T02:26:44;97525.44;;;-0.43;91.12
56894;BME280;43392;50.078;13.704;2023-01-28T02:29:21;97522.63;;;-0.41;90.98
56894;BME280;43392;50.078;13.704;2023-01-28T02:31:53;97519.53;;;-0.45;91.27
56894;BME280;43392;50.078;13.704;2023-01-28T02:34:32;97521.81;;;-0.42;90.83
56894;BME280;43392;50.078;13.704;2023-01-28T02:37:05;97524.22;;;-0.40;91.29
56894;BME280;43392;50.078;13.704;2023-01-28T02:39:37;97525.06;;;-0.40;91.01
56894;BME280;43392;50.078;13.704;2023-01-28T02:42:08;97528.31;;;-0.38;91.14
56894;BME280;43392;50.078;13.704;2023-01-28T02:44:39;97530.31;;;-0.40;90.83
56894;BME280;43392;50.078;13.704;2023-01-28T02:47:09;97538.44;;;-0.41;90.89
56894;BME280;43392;50.078;13.704;2023-01-28T02:49:54;97523.63;;;-0.42;90.66
56894;BME280;43392;50.078;13.704;2023-01-28T02:52:44;97525.63;;;-0.44;90.57
56894;BME280;43392;50.078;13.704;2023-01-28T02:55:34;97528.25;;;-0.44;90.88
56894;BME280;43392;50.078;13.704;2023-01-28T02:58:10;97526.44;;;-0.44;90.39
56894;BME280;43392;50.078;13.704;2023-01-28T03:00:49;97525.81;;;-0.46;90.66
56894;BME280;43392;50.078;13.704;2023-01-28T03:03:22;97540.00;;;-0.47;90.60
56894;BME280;43392;50.078;13.704;2023-01-28T03:05:55;97534.53;;;-0.45;90.37
56894;BME280;43392;50.078;13.704;2023-01-28T03:08:33;97534.34;;;-0.44;90.23
56894;BME280;43392;50.078;13.704;2023-01-28T03:11:19;97537.16;;;-0.45;90.23
56894;BME280;43392;50.078;13.704;2023-01-28T03:14:04;97535.56;;;-0.46;90.29
56894;BME280;43392;50.078;13.704;2023-01-28T03:16:50;97529.47;;;-0.47;90.40
56894;BME280;43392;50.078;13.704;2023-01-28T03:19:35;97525.00;;;-0.46;90.54
56894;BME280;43392;50.078;13.704;2023-01-28T03:22:20;97533.34;;;-0.43;90.36
56894;BME280;43392;50.078;13.704;2023-01-28T03:25:07;97518.72;;;-0.45;90.54
56894;BME280;43392;50.078;13.704;2023-01-28T03:27:54;97524.59;;;-0.43;90.11
56894;BME280;43392;50.078;13.704;2023-01-28T03:30:42;97528.88;;;-0.42;90.49
56894;BME280;43392;50.078;13.704;2023-01-28T03:33:29;97519.34;;;-0.43;90.13
56894;BME280;43392;50.078;13.704;2023-01-28T03:36:15;97523.81;;;-0.44;90.07
56894;BME280;43392;50.078;13.704;2023-01-28T03:38:59;97528.25;;;-0.44;90.54
56894;BME280;43392;50.078;13.704;2023-01-28T03:41:26;97523.81;;;-0.44;90.20
56894;BME280;43392;50.078;13.704;2023-01-28T03:43:52;97540.41;;;-0.43;90.30
56894;BME280;43392;50.078;13.704;2023-01-28T03:46:20;97537.78;;;-0.43;90.35
56894;BME280;43392;50.078;13.704;2023-01-28T03:48:48;97542.88;;;-0.42;90.39
56894;BME280;43392;50.078;13.704;2023-01-28T03:51:15;97544.47;;;-0.41;90.76
56894;BME280;43392;50.078;13.704;2023-01-28T03:53:42;97534.59;;;-0.39;90.56
56894;BME280;43392;50.078;13.704;2023-01-28T03:56:09;97529.94;;;-0.37;90.34
56894;BME280;43392;50.078;13.704;2023-01-28T03:58:42;97542.91;;;-0.35;90.33
56894;BME280;43392;50.078;13.704;2023-01-28T04:01:18;97553.25;;;-0.34;90.48
56894;BME280;43392;50.078;13.704;2023-01-28T04:03:44;97540.06;;;-0.34;90.60
56894;BME280;43392;50.078;13.704;2023-01-28T04:06:12;97553.25;;;-0.34;90.76
56894;BME280;43392;50.078;13.704;2023-01-28T04:08:39;97547.34;;;-0.36;90.57
56894;BME280;43392;50.078;13.704;2023-01-28T04:11:17;97536.81;;;-0.36;90.68
56894;BME280;43392;50.078;13.704;2023-01-28T04:13:45;97548.38;;;-0.37;90.47
56894;BME280;43392;50.078;13.704;2023-01-28T04:16:13;97545.53;;;-0.35;90.90
56894;BME280;43392;50.078;13.704;2023-01-28T04:18:40;97548.81;;;-0.33;90.38
56894;BME280;43392;50.078;13.704;2023-01-28T04:21:07;97551.25;;;-0.32;90.51
56894;BME280;43392;50.078;13.704;2023-01-28T04:23:35;97543.97;;;-0.30;90.48
56894;BME280;43392;50.078;13.704;2023-01-28T04:26:01;97544.59;;;-0.28;90.65
56894;BME280;43392;50.078;13.704;2023-01-28T04:28:29;97549.41;;;-0.31;90.40
56894;BME280;43392;50.078;13.704;2023-01-28T04:30:56;97549.63;;;-0.33;90.33
56894;BME280;43392;50.078;13.704;2023-01-28T04:33:22;97551.44;;;-0.33;90.42
56894;BME280;43392;50.078;13.704;2023-01-28T04:35:49;97551.63;;;-0.35;90.18
56894;BME280;43392;50.078;13.704;2023-01-28T04:38:15;97554.44;;;-0.36;90.40
56894;BME280;43392;50.078;13.704;2023-01-28T04:40:43;97545.75;;;-0.37;90.42
56894;BME280;43392;50.078;13.704;2023-01-28T04:43:10;97545.75;;;-0.37;90.18
56894;BME280;43392;50.078;13.704;2023-01-28T04:45:36;97543.91;;;-0.36;90.12
56894;BME280;43392;50.078;13.704;2023-01-28T04:48:03;97543.72;;;-0.35;90.58
56894;BME280;43392;50.078;13.704;2023-01-28T04:50:29;97546.00;;;-0.32;90.51
56894;BME280;43392;50.078;13.704;2023-01-28T04:52:56;97550.84;;;-0.29;90.41
56894;BME280;43392;50.078;13.704;2023-01-28T04:55:23;97551.50;;;-0.27;90.08
56894;BME280;43392;50.078;13.704;2023-01-28T04:57:50;97548.47;;;-0.24;90.58
56894;BME280;43392;50.078;13.704;2023-01-28T05:00:18;97544.22;;;-0.25;89.95
56894;BME280;43392;50.078;13.704;2023-01-28T05:02:44;97543.78;;;-0.28;89.91
56894;BME280;43392;50.078;13.704;2023-01-28T05:05:11;97562.81;;;-0.26;90.16
56894;BME280;43392;50.078;13.704;2023-01-28T05:07:37;97553.50;;;-0.29;90.02
56894;BME280;43392;50.078;13.704;2023-01-28T05:10:05;97554.94;;;-0.26;90.32
56894;BME280;43392;50.078;13.704;2023-01-28T05:12:32;97558.38;;;-0.26;90.30
56894;BME280;43392;50.078;13.704;2023-01-28T05:15:00;97552.91;;;-0.24;89.91
56894;BME280;43392;50.078;13.704;2023-01-28T05:17:26;97553.56;;;-0.22;90.17
56894;BME280;43392;50.078;13.704;2023-01-28T05:19:53;97556.38;;;-0.24;90.00
56894;BME280;43392;50.078;13.704;2023-01-28T05:22:19;97557.56;;;-0.26;90.00
56894;BME280;43392;50.078;13.704;2023-01-28T05:24:46;97564.69;;;-0.27;90.16
56894;BME280;43392;50.078;13.704;2023-01-28T05:27:13;97554.13;;;-0.27;90.08
56894;BME280;43392;50.078;13.704;2023-01-28T05:29:40;97557.56;;;-0.26;90.05
56894;BME280;43392;50.078;13.704;2023-01-28T05:32:08;97561.00;;;-0.26;90.18
56894;BME280;43392;50.078;13.704;2023-01-28T05:34:34;97562.03;;;-0.27;90.05
56894;BME280;43392;50.078;13.704;2023-01-28T05:37:01;97566.91;;;-0.24;90.57
56894;BME280;43392;50.078;13.704;2023-01-28T05:39:28;97569.38;;;-0.22;90.49
56894;BME280;43392;50.078;13.704;2023-01-28T05:41:55;97572.78;;;-0.22;90.27
56894;BME280;43392;50.078;13.704;2023-01-28T05:44:22;97575.84;;;-0.25;89.97
56894;BME280;43392;50.078;13.704;2023-01-28T05:46:48;97575.38;;;-0.28;90.27
56894;BME280;43392;50.078;13.704;2023-01-28T05:49:16;97571.94;;;-0.29;90.00
56894;BME280;43392;50.078;13.704;2023-01-28T05:51:43;97577.84;;;-0.27;89.92
56894;BME280;43392;50.078;13.704;2023-01-28T05:54:10;97573.38;;;-0.26;90.22
56894;BME280;43392;50.078;13.704;2023-01-28T05:56:36;97571.16;;;-0.29;90.18
56894;BME280;43392;50.078;13.704;2023-01-28T05:59:04;97564.03;;;-0.29;90.21
56894;BME280;43392;50.078;13.704;2023-01-28T06:01:31;97570.94;;;-0.28;89.98
56894;BME280;43392;50.078;13.704;2023-01-28T06:03:57;97569.13;;;-0.27;90.40
56894;BME280;43392;50.078;13.704;2023-01-28T06:06:26;97569.28;;;-0.29;90.24
56894;BME280;43392;50.078;13.704;2023-01-28T06:08:52;97577.03;;;-0.27;90.38
56894;BME280;43392;50.078;13.704;2023-01-28T06:11:19;97578.03;;;1.14;95.82
56894;BME280;43392;50.078;13.704;2023-01-28T06:13:45;97568.44;;;3.69;95.16
56894;BME280;43392;50.078;13.704;2023-01-28T06:16:12;97573.44;;;5.22;91.44
56894;BME280;43392;50.078;13.704;2023-01-28T06:18:39;97572.66;;;6.32;88.71
56894;BME280;43392;50.078;13.704;2023-01-28T06:21:06;97571.00;;;7.06;82.91
56894;BME280;43392;50.078;13.704;2023-01-28T06:23:34;97587.59;;;5.34;79.25
56894;BME280;43392;50.078;13.704;2023-01-28T06:26:01;97585.53;;;3.48;81.65
56894;BME280;43392;50.078;13.704;2023-01-28T06:28:28;97596.53;;;2.19;84.06
56894;BME280;43392;50.078;13.704;2023-01-28T06:30:54;97604.50;;;1.40;86.15
56894;BME280;43392;50.078;13.704;2023-01-28T06:33:21;97601.13;;;0.92;87.81
56894;BME280;43392;50.078;13.704;2023-01-28T06:35:48;97599.84;;;0.62;88.45
56894;BME280;43392;50.078;13.704;2023-01-28T06:38:16;97604.81;;;0.44;88.77
56894;BME280;43392;50.078;13.704;2023-01-28T06:40:44;97615.69;;;0.28;88.96
56894;BME280;43392;50.078;13.704;2023-01-28T06:43:10;97615.44;;;0.16;89.00
56894;BME280;43392;50.078;13.704;2023-01-28T06:45:37;97622.28;;;0.11;88.97
56894;BME280;43392;50.078;13.704;2023-01-28T06:48:04;97619.38;;;-0.01;88.59
56894;BME280;43392;50.078;13.704;2023-01-28T06:50:31;97627.50;;;-0.03;88.71
56894;BME280;43392;50.078;13.704;2023-01-28T06:52:57;97639.16;;;-0.12;88.25
56894;BME280;43392;50.078;13.704;2023-01-28T06:55:24;97629.81;;;-0.14;88.48
56894;BME280;43392;50.078;13.704;2023-01-28T06:57:52;97629.81;;;-0.14;88.58
56894;BME280;43392;50.078;13.704;2023-01-28T07:00:19;97632.66;;;-0.16;88.40
56894;BME280;43392;50.078;13.704;2023-01-28T07:02:45;97628.22;;;-0.15;88.20
56894;BME280;43392;50.078;13.704;2023-01-28T07:05:12;97639.13;;;-0.18;88.19
56894;BME280;43392;50.078;13.704;2023-01-28T07:07:39;97639.13;;;-0.18;88.14
56894;BME280;43392;50.078;13.704;2023-01-28T07:10:06;97645.22;;;-0.18;88.13
56894;BME280;43392;50.078;13.704;2023-01-28T07:12:33;97647.41;;;-0.21;88.18
56894;BME280;43392;50.078;13.704;2023-01-28T07:15:01;97651.47;;;-0.19;87.91
56894;BME280;43392;50.078;13.704;2023-01-28T07:17:27;97648.84;;;-0.19;88.02
56894;BME280;43392;50.078;13.704;2023-01-28T07:19:54;97644.78;;;-0.21;88.09
56894;BME280;43392;50.078;13.704;2023-01-28T07:22:21;97642.75;;;-0.19;87.95
56894;BME280;43392;50.078;13.704;2023-01-28T07:24:47;97654.50;;;-0.22;87.73
56894;BME280;43392;50.078;13.704;2023-01-28T07:27:14;97659.75;;;-0.22;87.53
56894;BME280;43392;50.078;13.704;2023-01-28T07:29:41;97643.94;;;-0.22;87.72
56894;BME280;43392;50.078;13.704;2023-01-28T07:32:09;97651.69;;;-0.20;87.72
56894;BME280;43392;50.078;13.704;2023-01-28T07:34:35;97652.69;;;-0.21;87.53
56894;BME280;43392;50.078;13.704;2023-01-28T07:37:04;97662.59;;;-0.23;87.70
56894;BME280;43392;50.078;13.704;2023-01-28T07:39:31;97658.97;;;-0.22;87.71
56894;BME280;43392;50.078;13.704;2023-01-28T07:41:57;97658.16;;;-0.23;87.69
56894;BME280;43392;50.078;13.704;2023-01-28T07:44:24;97664.81;;;-0.27;87.57
56894;BME280;43392;50.078;13.704;2023-01-28T07:46:50;97662.91;;;-0.33;87.30
56894;BME280;43392;50.078;13.704;2023-01-28T07:49:18;97663.91;;;-0.34;87.41
56894;BME280;43392;50.078;13.704;2023-01-28T07:51:45;97666.00;;;-0.29;87.84
56894;BME280;43392;50.078;13.704;2023-01-28T07:54:13;97672.72;;;-0.27;87.63
56894;BME280;43392;50.078;13.704;2023-01-28T07:56:39;97665.44;;;-0.25;87.60
56894;BME280;43392;50.078;13.704;2023-01-28T07:59:06;97673.72;;;-0.28;87.33
56894;BME280;43392;50.078;13.704;2023-01-28T08:01:32;97676.75;;;-0.24;87.44
56894;BME280;43392;50.078;13.704;2023-01-28T08:03:59;97686.50;;;-0.25;87.55
56894;BME280;43392;50.078;13.704;2023-01-28T08:06:28;97674.69;;;-0.29;87.13
56894;BME280;43392;50.078;13.704;2023-01-28T08:08:55;97690.50;;;-0.29;87.55
56894;BME280;43392;50.078;13.704;2023-01-28T08:11:21;97686.88;;;-0.28;87.32
56894;BME280;43392;50.078;13.704;2023-01-28T08:13:48;97691.78;;;-0.25;87.67
56894;BME280;43392;50.078;13.704;2023-01-28T08:16:15;97690.75;;;-0.24;87.39
56894;BME280;43392;50.078;13.704;2023-01-28T08:18:41;97685.25;;;-0.29;87.11
56894;BME280;43392;50.078;13.704;2023-01-28T08:21:08;97695.97;;;-0.30;87.17
56894;BME280;43392;50.078;13.704;2023-01-28T08:23:36;97691.91;;;-0.33;87.42
56894;BME280;43392;50.078;13.704;2023-01-28T08:26:03;97694.16;;;-0.30;87.19
56894;BME280;43392;50.078;13.704;2023-01-28T08:28:29;97704.34;;;-0.27;87.46
56894;BME280;43392;50.078;13.704;2023-01-28T08:30:58;97690.75;;;-0.24;87.40
56894;BME280;43392;50.078;13.704;2023-01-28T08:33:25;97697.31;;;-0.20;87.55
56894;BME280;43392;50.078;13.704;2023-01-28T08:35:51;97696.91;;;-0.17;87.33
56894;BME280;43392;50.078;13.704;2023-01-28T08:38:18;97700.34;;;-0.16;87.28
56894;BME280;43392;50.078;13.704;2023-01-28T08:40:46;97698.34;;;-0.14;87.05
56894;BME280;43392;50.078;13.704;2023-01-28T08:43:14;97699.13;;;-0.20;86.83
56894;BME280;43392;50.078;13.704;2023-01-28T08:45:41;97708.00;;;-0.21;86.68
56894;BME280;43392;50.078;13.704;2023-01-28T08:48:11;97706.56;;;-0.24;86.78
56894;BME280;43392;50.078;13.704;2023-01-28T08:50:39;97705.59;;;-0.23;86.73
56894;BME280;43392;50.078;13.704;2023-01-28T08:53:09;97712.25;;;-0.27;86.15
56894;BME280;43392;50.078;13.704;2023-01-28T08:55:36;97701.25;;;-0.30;86.41
56894;BME280;43392;50.078;13.704;2023-01-28T08:58:06;97721.34;;;-0.29;85.83
56894;BME280;43392;50.078;13.704;2023-01-28T09:00:33;97710.34;;;-0.33;85.98
56894;BME280;43392;50.078;13.704;2023-01-28T09:03:01;97716.00;;;-0.36;86.23
56894;BME280;43392;50.078;13.704;2023-01-28T09:05:27;97727.56;;;-0.37;85.78
56894;BME280;43392;50.078;13.704;2023-01-28T09:07:54;97719.25;;;-0.34;86.02
56894;BME280;43392;50.078;13.704;2023-01-28T09:10:20;97719.50;;;-0.29;85.68
56894;BME280;43392;50.078;13.704;2023-01-28T09:12:47;97722.97;;;-0.28;85.78
56894;BME280;43392;50.078;13.704;2023-01-28T09:15:16;97735.13;;;-0.27;85.72
56894;BME280;43392;50.078;13.704;2023-01-28T09:17:42;97734.56;;;-0.23;85.58
56894;BME280;43392;50.078;13.704;2023-01-28T09:20:10;97732.94;;;-0.24;85.75
56894;BME280;43392;50.078;13.704;2023-01-28T09:22:37;97735.97;;;-0.27;85.57
56894;BME280;43392;50.078;13.704;2023-01-28T09:25:04;97742.09;;;-0.20;85.67
56894;BME280;43392;50.078;13.704;2023-01-28T09:27:32;97744.53;;;-0.18;85.38
56894;BME280;43392;50.078;13.704;2023-01-28T09:29:58;97755.91;;;-0.18;85.27
56894;BME280;43392;50.078;13.704;2023-01-28T09:32:26;97752.66;;;-0.20;85.17
56894;BME280;43392;50.078;13.704;2023-01-28T09:34:53;97752.25;;;-0.17;85.21
56894;BME280;43392;50.078;13.704;2023-01-28T09:37:19;97749.00;;;-0.19;84.64
56894;BME280;43392;50.078;13.704;2023-01-28T09:39:46;97763.19;;;-0.20;84.61
56894;BME280;43392;50.078;13.704;2023-01-28T09:42:28;97754.84;;;-0.23;84.77
56894;BME280;43392;50.078;13.704;2023-01-28T09:45:02;97758.84;;;-0.27;84.85
56894;BME280;43392;50.078;13.704;2023-01-28T09:47:37;97763.41;;;-0.36;84.65
56894;BME280;43392;50.078;13.704;2023-01-28T09:50:08;97758.44;;;-0.45;84.70
56894;BME280;43392;50.078;13.704;2023-01-28T09:52:38;97768.09;;;-0.52;84.73
56894;BME280;43392;50.078;13.704;2023-01-28T09:55:14;97767.69;;;-0.56;84.46
56894;BME280;43392;50.078;13.704;2023-01-28T09:57:45;97760.69;;;-0.63;84.69
56894;BME280;43392;50.078;13.704;2023-01-28T10:00:14;97763.69;;;-0.67;85.18
56894;BME280;43392;50.078;13.704;2023-01-28T10:02:56;97770.78;;;-0.67;84.95
56894;BME280;43392;50.078;13.704;2023-01-28T10:05:31;97768.13;;;-0.67;84.72
56894;BME280;43392;50.078;13.704;2023-01-28T10:08:14;97765.88;;;-0.70;84.89
56894;BME280;43392;50.078;13.704;2023-01-28T10:10:46;97763.13;;;-0.62;85.21
56894;BME280;43392;50.078;13.704;2023-01-28T10:13:25;97765.47;;;-0.52;84.38
56894;BME280;43392;50.078;13.704;2023-01-28T10:16:04;97762.28;;;-0.48;84.51
56894;BME280;43392;50.078;13.704;2023-01-28T10:18:41;97770.38;;;-0.49;84.15
56894;BME280;43392;50.078;13.704;2023-01-28T10:21:15;97761.44;;;-0.48;84.58
56894;BME280;43392;50.078;13.704;2023-01-28T10:23:49;97761.44;;;-0.48;84.39
56894;BME280;43392;50.078;13.704;2023-01-28T10:26:24;97767.94;;;-0.51;84.82
56894;BME280;43392;50.078;13.704;2023-01-28T10:28:54;97769.28;;;-0.55;84.40
56894;BME280;43392;50.078;13.704;2023-01-28T10:31:22;97764.25;;;-0.71;84.63
56894;BME280;43392;50.078;13.704;2023-01-28T10:33:50;97768.63;;;-0.78;84.89
56894;BME280;43392;50.078;13.704;2023-01-28T10:36:18;97770.63;;;-0.80;85.08
56894;BME280;43392;50.078;13.704;2023-01-28T10:38:44;97773.78;;;-0.85;85.04
56894;BME280;43392;50.078;13.704;2023-01-28T10:41:17;97780.72;;;-0.98;84.64
56894;BME280;43392;50.078;13.704;2023-01-28T10:43:44;97777.53;;;-1.08;85.43
56894;BME280;43392;50.078;13.704;2023-01-28T10:46:13;97771.44;;;-1.23;84.91
56894;BME280;43392;50.078;13.704;2023-01-28T10:48:44;97787.91;;;-1.21;85.25
56894;BME280;43392;50.078;13.704;2023-01-28T10:51:12;97786.25;;;-1.22;85.33
56894;BME280;43392;50.078;13.704;2023-01-28T10:53:41;97790.53;;;-1.21;85.54
56894;BME280;43392;50.078;13.704;2023-01-28T10:56:10;97787.50;;;-1.18;85.81
56894;BME280;43392;50.078;13.704;2023-01-28T10:58:47;97793.78;;;-1.19;85.43
56894;BME280;43392;50.078;13.704;2023-01-28T11:01:15;97800.88;;;-1.20;85.88
56894;BME280;43392;50.078;13.704;2023-01-28T11:03:52;97792.16;;;-1.20;85.09
56894;BME280;43392;50.078;13.704;2023-01-28T11:06:25;97781.25;;;-1.17;85.63
56894;BME280;43392;50.078;13.704;2023-01-28T11:08:52;97779.63;;;-1.18;85.54
56894;BME280;43392;50.078;13.704;2023-01-28T11:11:23;97784.44;;;-1.22;85.56
56894;BME280;43392;50.078;13.704;2023-01-28T11:13:50;97800.41;;;-1.23;85.20
56894;BME280;43392;50.078;13.704;2023-01-28T11:16:18;97796.16;;;-1.24;85.54
56894;BME280;43392;50.078;13.704;2023-01-28T11:18:48;97802.88;;;-1.22;85.38
56894;BME280;43392;50.078;13.704;2023-01-28T11:21:18;97787.91;;;-1.21;85.02
56894;BME280;43392;50.078;13.704;2023-01-28T11:23:49;97792.88;;;-1.26;85.12
56894;BME280;43392;50.078;13.704;2023-01-28T11:26:18;97794.34;;;-1.24;85.02
56894;BME280;43392;50.078;13.704;2023-01-28T11:28:46;97783.63;;;-1.22;84.68
56894;BME280;43392;50.078;13.704;2023-01-28T11:31:15;97792.34;;;-1.22;85.13
56894;BME280;43392;50.078;13.704;2023-01-28T11:33:48;97793.72;;;-1.26;84.92
56894;BME280;43392;50.078;13.704;2023-01-28T11:36:18;97803.22;;;-1.25;85.22
56894;BME280;43392;50.078;13.704;2023-01-28T11:38:51;97795.59;;;-1.20;85.07
56894;BME280;43392;50.078;13.704;2023-01-28T11:41:25;97790.41;;;-1.13;84.90
56894;BME280;43392;50.078;13.704;2023-01-28T11:43:53;97797.53;;;-1.14;84.68
56894;BME280;43392;50.078;13.704;2023-01-28T11:46:35;97799.59;;;-1.09;84.62
56894;BME280;43392;50.078;13.704;2023-01-28T11:49:11;97799.22;;;-1.06;84.60
56894;BME280;43392;50.078;13.704;2023-01-28T11:51:47;97802.59;;;-1.12;84.01
56894;BME280;43392;50.078;13.704;2023-01-28T11:54:27;97807.09;;;-1.21;83.72
56894;BME280;43392;50.078;13.704;2023-01-28T11:57:10;97813.19;;;-1.20;83.96
56894;BME280;43392;50.078;13.704;2023-01-28T11:59:53;97814.38;;;-1.23;83.99
56894;BME280;43392;50.078;13.704;2023-01-28T12:02:35;97814.22;;;-1.21;83.34
56894;BME280;43392;50.078;13.704;2023-01-28T12:05:15;97816.09;;;-1.15;83.20
56894;BME280;43392;50.078;13.704;2023-01-28T12:07:49;97805.78;;;-1.17;83.04
56894;BME280;43392;50.078;13.704;2023-01-28T12:10:28;97807.50;;;-1.09;82.57
56894;BME280;43392;50.078;13.704;2023-01-28T12:13:06;97807.84;;;-0.98;82.01
56894;BME280;43392;50.078;13.704;2023-01-28T12:16:01;97800.50;;;-0.88;84.13
56894;BME280;43392;50.078;13.704;2023-01-28T12:18:42;97810.75;;;-0.63;81.89
56894;BME280;43392;50.078;13.704;2023-01-28T12:21:21;97803.47;;;-0.76;81.05
56894;BME280;43392;50.078;13.704;2023-01-28T12:24:05;97807.22;;;-0.85;81.41
56894;BME280;43392;50.078;13.704;2023-01-28T12:26:41;97804.69;;;-0.93;81.49
56894;BME280;43392;50.078;13.704;2023-01-28T12:29:21;97795.78;;;-0.92;81.37
56894;BME280;43392;50.078;13.704;2023-01-28T12:32:02;97792.97;;;-0.91;81.72
56894;BME280;43392;50.078;13.704;2023-01-28T12:35:06;97801.28;;;-0.87;81.14
56894;BME280;43392;50.078;13.704;2023-01-28T12:37:50;97799.13;;;-0.98;81.11
56894;BME280;43392;50.078;13.704;2023-01-28T12:40:35;97805.31;;;-1.06;80.69
56894;BME280;43392;50.078;13.704;2023-01-28T12:43:10;97800.50;;;-1.02;81.57
56894;BME280;43392;50.078;13.704;2023-01-28T12:45:42;97800.31;;;-1.01;81.51
56894;BME280;43392;50.078;13.704;2023-01-28T12:48:13;97804.13;;;-1.03;80.98
56894;BME280;43392;50.078;13.704;2023-01-28T12:50:45;97799.22;;;-1.06;80.93
56894;BME280;43392;50.078;13.704;2023-01-28T12:53:20;97794.97;;;-1.07;81.39
56894;BME280;43392;50.078;13.704;2023-01-28T12:55:53;97809.84;;;-1.14;81.45
56894;BME280;43392;50.078;13.704;2023-01-28T12:58:34;97802.59;;;-1.12;82.70
56894;BME280;43392;50.078;13.704;2023-01-28T13:01:06;97793.94;;;-0.92;81.80
56894;BME280;43392;50.078;13.704;2023-01-28T13:03:38;97800.88;;;-1.05;80.80
56894;BME280;43392;50.078;13.704;2023-01-28T13:06:10;97800.94;;;-1.13;80.89
56894;BME280;43392;50.078;13.704;2023-01-28T13:08:39;97809.22;;;-1.16;81.25